MSC Clorinda — 3FDW7 — position and weather

sailwx.info

Track history (hours):
 
Tides and Currents Weather Stations Pressure Air Temp Water Temp Dewpoint Dewpoint Depression Visibility Wind Speed Wind Dir Waves Ship Positions

MSC Clorinda

Last reported at 2017-Apr-18 18:57 UTC. Time now 2017-Apr-26 07:58 UTC.
Position N 31°27' E 032°20'.

Length 366 m; draft 15.4 m.

Type: Ship (hazmat cat A). MMSI: 373233000.

Date/timePositionNaut miles runAvg speedWind from/ knotsBaromVisibWave heightAir tempDewpointWater temp
2017-Apr-18 18:57N 31°27' E 032°20'2 3.6
2017-Apr-18 18:23N 31°27' E 032°18'3 7.7
2017-Apr-18 18:00N 31°29' E 032°16'611.7
2017-Apr-18 17:30N 31°33' E 032°11'612.3
2017-Apr-18 17:00N 31°37' E 032°06'612.3
2017-Apr-18 16:30N 31°42' E 032°01'714.2
2017-Apr-18 16:00N 31°46' E 031°54'9016.9
2017-Apr-18 10:43N 32°15' E 030°14'78918.6
2017-Apr-16 16:10N 35°39' E 014°55'417.7
2017-Apr-16 15:58N 35°40' E 014°50'818.3
2017-Apr-16 15:30N 35°41' E 014°40'1018.9
2017-Apr-16 14:59N 35°43' E 014°29'918.3
2017-Apr-16 14:30N 35°46' E 014°18'1818.4
2017-Apr-16 13:30N 35°56' E 013°59'918.5
2017-Apr-16 13:00N 36°01' E 013°49'918.4
2017-Apr-16 12:30N 36°06' E 013°40'918.7
2017-Apr-16 12:00N 36°11' E 013°30'919.0
2017-Apr-16 11:30N 36°16' E 013°20'1019.5
2017-Apr-16 11:00N 36°21' E 013°10'1219.3
2017-Apr-16 10:22N 36°28' E 012°57'819.3
2017-Apr-16 09:57N 36°32' E 012°49'919.4
2017-Apr-16 09:29N 36°37' E 012°39'919.2
2017-Apr-16 09:00N 36°42' E 012°29'918.9
2017-Apr-16 08:30N 36°47' E 012°20'14418.9
2017-Apr-16 00:54N 37°55' E 009°40'719.1
2017-Apr-16 00:30N 37°58' E 009°32'1018.9
2017-Apr-15 23:59N 38°02' E 009°20'918.8
2017-Apr-15 23:30N 38°06' E 009°10'2318.7
2017-Apr-15 22:16N 38°16' E 008°43'518.5
2017-Apr-15 22:00N 38°18' E 008°37'918.6
2017-Apr-15 21:30N 38°21' E 008°27'26418.3
2017-Apr-15 07:03N 40°38' E 003°33'118.4
2017-Apr-15 07:00N 40°39' E 003°32'918.6
2017-Apr-15 06:30N 40°44' E 003°22'918.7
2017-Apr-15 06:00N 40°49' E 003°11'918.4
2017-Apr-15 05:30N 40°53' E 003°01'918.3
2017-Apr-15 05:00N 40°58' E 002°51'918.2
2017-Apr-15 04:30N 41°03' E 002°40'918.1
2017-Apr-15 04:00N 41°08' E 002°30'918.1
2017-Apr-15 03:30N 41°12' E 002°20'815.6
2017-Apr-15 03:00N 41°16' E 002°11'4 7.1
2017-Apr-15 02:30N 41°19' E 002°10'1 1.1
2017-Apr-15 01:38N 41°18' E 002°09'0 0.0
2017-Apr-15 01:26N 41°18' E 002°09'0 0.0
2017-Apr-15 00:56N 41°18' E 002°09'0 0.0
2017-Apr-14 20:26N 41°18' E 002°09'0 0.0
2017-Apr-14 17:50N 41°18' E 002°09'0 0.0
2017-Apr-14 17:26N 41°18' E 002°09'0 0.0
2017-Apr-14 15:26N 41°18' E 002°09'0 0.0
2017-Apr-14 13:44N 41°18' E 002°09'0 0.0
2017-Apr-14 13:20N 41°18' E 002°09'0 0.0
2017-Apr-14 12:56N 41°18' E 002°09'0 0.0
2017-Apr-14 12:26N 41°18' E 002°09'0 0.0
2017-Apr-14 11:59N 41°18' E 002°09'0 0.0
2017-Apr-14 11:23N 41°18' E 002°09'0 0.0
2017-Apr-14 10:50N 41°18' E 002°09'0 0.0
2017-Apr-14 10:29N 41°18' E 002°09'0 0.0
2017-Apr-14 09:56N 41°18' E 002°09'0 0.0
2017-Apr-14 09:29N 41°18' E 002°09'0 0.0
2017-Apr-14 07:32N 41°18' E 002°09'0 0.1
2017-Apr-14 07:26N 41°18' E 002°09'0 0.0
2017-Apr-14 05:32N 41°18' E 002°09'0 0.0
2017-Apr-14 05:05N 41°18' E 002°09'0 0.0
2017-Apr-14 04:59N 41°18' E 002°09'0 0.0
2017-Apr-14 04:29N 41°18' E 002°09'0 0.0
2017-Apr-14 03:44N 41°18' E 002°09'0 0.0
2017-Apr-14 03:26N 41°18' E 002°09'0 0.0
2017-Apr-14 02:59N 41°18' E 002°09'3 0.6
2017-Apr-13 21:48N 41°16' E 002°11'3 8.8
2017-Apr-13 21:30N 41°13' E 002°09'5 9.7
2017-Apr-13 21:00N 41°09' E 002°05'816.4
2017-Apr-13 20:30N 41°03' E 001°59'917.2
2017-Apr-13 20:00N 40°56' E 001°53'917.2
2017-Apr-13 19:30N 40°49' E 001°46'917.3
2017-Apr-13 19:00N 40°41' E 001°40'917.4
2017-Apr-13 18:30N 40°35' E 001°33'917.8
2017-Apr-13 18:00N 40°27' E 001°27'1019.2
2017-Apr-13 17:30N 40°19' E 001°20'1019.2
2017-Apr-13 17:00N 40°11' E 001°13'1019.0
2017-Apr-13 16:29N 40°03' E 001°05'918.8
2017-Apr-13 16:00N 39°55' E 000°58'918.8
2017-Apr-13 15:30N 39°48' E 000°52'1018.7
2017-Apr-13 15:00N 39°43' E 000°41'919.0
2017-Apr-13 14:30N 39°40' E 000°30'3119.1
2017-Apr-13 12:52N 39°28' W 000°08'617.1
2017-Apr-13 12:30N 39°25' W 000°15'3 5.8
2017-Apr-13 12:00N 39°26' W 000°19'0 0.9
2017-Apr-13 11:29N 39°26' W 000°20'0 0.0
2017-Apr-13 10:59N 39°26' W 000°20'0 0.0
2017-Apr-13 10:29N 39°26' W 000°20'0 0.0
2017-Apr-13 09:59N 39°26' W 000°20'0 0.0
2017-Apr-13 09:29N 39°26' W 000°20'0 0.0
2017-Apr-13 08:59N 39°26' W 000°20'0 0.0
2017-Apr-13 08:29N 39°26' W 000°20'0 0.0
2017-Apr-13 07:59N 39°26' W 000°20'0 0.0
2017-Apr-13 07:29N 39°26' W 000°20'0 0.0
2017-Apr-13 06:59N 39°26' W 000°20'0 0.0
2017-Apr-13 06:29N 39°26' W 000°20'0 0.0
2017-Apr-13 05:56N 39°26' W 000°20'0 0.0
2017-Apr-13 05:26N 39°26' W 000°20'0 0.0
2017-Apr-13 04:56N 39°26' W 000°20'0 0.0
2017-Apr-13 04:29N 39°26' W 000°20'0 0.0
2017-Apr-13 03:59N 39°26' W 000°20'0 0.0
2017-Apr-13 03:29N 39°26' W 000°20'0 0.0
2017-Apr-13 02:59N 39°26' W 000°20'0 0.0
2017-Apr-13 02:29N 39°26' W 000°20'0 0.0
2017-Apr-13 01:59N 39°26' W 000°20'0 0.0
2017-Apr-13 01:29N 39°26' W 000°20'0 0.0
2017-Apr-13 00:59N 39°26' W 000°20'0 0.0
2017-Apr-13 00:29N 39°26' W 000°20'0 0.0
2017-Apr-12 23:56N 39°26' W 000°20'0 0.0
2017-Apr-12 23:29N 39°26' W 000°20'0 0.0
2017-Apr-12 22:56N 39°26' W 000°20'0 0.0
2017-Apr-12 22:26N 39°26' W 000°20'0 0.0
2017-Apr-12 21:56N 39°26' W 000°20'0 0.0
2017-Apr-12 21:26N 39°26' W 000°20'0 0.0
2017-Apr-12 20:56N 39°26' W 000°20'0 0.0
2017-Apr-12 20:26N 39°26' W 000°20'0 0.0
2017-Apr-12 19:56N 39°26' W 000°20'0 0.0
2017-Apr-12 19:17N 39°26' W 000°20'0 0.0
2017-Apr-12 18:56N 39°26' W 000°20'0 0.0
2017-Apr-12 18:26N 39°26' W 000°20'0 0.0
2017-Apr-12 17:56N 39°26' W 000°20'0 0.0
2017-Apr-12 17:23N 39°26' W 000°20'0 0.0
2017-Apr-12 16:56N 39°26' W 000°20'0 0.0
2017-Apr-12 16:26N 39°26' W 000°20'0 0.0
2017-Apr-12 15:59N 39°26' W 000°20'0 0.0
2017-Apr-12 15:29N 39°26' W 000°20'0 0.0
2017-Apr-12 14:59N 39°26' W 000°20'0 0.0
2017-Apr-12 14:26N 39°26' W 000°20'0 0.0
2017-Apr-12 13:26N 39°26' W 000°20'0 0.0
2017-Apr-12 12:56N 39°26' W 000°20'0 0.0
2017-Apr-12 12:26N 39°26' W 000°20'0 0.0
2017-Apr-12 11:59N 39°26' W 000°20'0 0.0
2017-Apr-12 09:23N 39°26' W 000°20'0 0.0
2017-Apr-12 07:26N 39°26' W 000°20'0 0.0
2017-Apr-12 06:56N 39°26' W 000°20'0 0.0
2017-Apr-12 06:26N 39°26' W 000°20'0 0.0
2017-Apr-12 05:59N 39°26' W 000°20'0 0.0
2017-Apr-12 05:26N 39°26' W 000°20'0 0.0
2017-Apr-12 04:56N 39°26' W 000°20'0 0.0
2017-Apr-12 04:29N 39°26' W 000°20'0 0.0
2017-Apr-12 03:59N 39°26' W 000°20'0 0.0
2017-Apr-12 03:26N 39°26' W 000°20'0 0.0
2017-Apr-12 02:59N 39°26' W 000°20'0 0.0
2017-Apr-12 02:29N 39°26' W 000°20'0 0.0
2017-Apr-12 01:56N 39°26' W 000°20'0 0.0
2017-Apr-12 01:26N 39°26' W 000°20'0 0.0
2017-Apr-12 00:56N 39°26' W 000°20'0 0.0
2017-Apr-12 00:29N 39°26' W 000°20'0 0.0
2017-Apr-11 23:02N 39°26' W 000°20'0 0.0
2017-Apr-11 22:59N 39°26' W 000°20'0 0.2
2017-Apr-11 22:30N 39°26' W 000°20'3 5.7
2017-Apr-11 22:00N 39°25' W 000°16'4 7.1
2017-Apr-11 21:30N 39°27' W 000°12'5 9.1
2017-Apr-11 21:00N 39°28' W 000°06'815.3
2017-Apr-11 20:30N 39°31' E 000°03'1115.0
2017-Apr-11 19:46N 39°36' E 000°16'414.4
2017-Apr-11 19:30N 39°37' E 000°20'714.1
2017-Apr-11 19:00N 39°40' E 000°29'714.0
2017-Apr-11 18:30N 39°42' E 000°37'714.2
2017-Apr-11 18:01N 39°45' E 000°46'714.3
2017-Apr-11 17:30N 39°49' E 000°54'714.7
2017-Apr-11 17:00N 39°54' E 001°01'815.2
2017-Apr-11 16:30N 39°60' E 001°07'815.3
2017-Apr-11 16:00N 40°05' E 001°14'815.6
2017-Apr-11 15:30N 40°11' E 001°21'815.5
2017-Apr-11 15:00N 40°16' E 001°28'815.6
2017-Apr-11 14:30N 40°22' E 001°36'1615.6
2017-Apr-11 13:31N 40°33' E 001°50'815.9
2017-Apr-11 13:00N 40°39' E 001°58'815.7
2017-Apr-11 12:30N 40°44' E 002°05'816.1
2017-Apr-11 12:00N 40°50' E 002°12'816.2
2017-Apr-11 11:31N 40°56' E 002°20'816.6
2017-Apr-11 11:00N 41°02' E 002°27'918.8
2017-Apr-11 10:30N 41°08' E 002°36'1019.9
2017-Apr-11 10:00N 41°15' E 002°46'1019.8
2017-Apr-11 09:30N 41°22' E 002°55'1019.6
2017-Apr-11 09:00N 41°29' E 003°04'1019.1
2017-Apr-11 08:30N 41°36' E 003°13'1019.5
2017-Apr-11 08:00N 41°43' E 003°22'9320.1
2017-Apr-11 03:24N 42°54' E 004°42'1619.4
2017-Apr-11 02:34N 43°07' E 004°56'119.3
2017-Apr-11 02:30N 43°08' E 004°57'917.7
2017-Apr-11 02:00N 43°16' E 004°60'713.7
2017-Apr-11 01:30N 43°23' E 004°57'6 0.7
2017-Apr-10 17:24N 43°25' E 004°50'0 0.0
2017-Apr-10 15:30N 43°25' E 004°50'0 0.0
2017-Apr-10 14:12N 43°25' E 004°50'0 0.0
2017-Apr-10 13:24N 43°25' E 004°50'0 0.0
2017-Apr-10 03:24N 43°25' E 004°50'0 0.0
2017-Apr-09 22:06N 43°25' E 004°50'0 0.0
2017-Apr-09 21:36N 43°25' E 004°50'0 0.1
2017-Apr-09 21:30N 43°25' E 004°50'0 0.0
2017-Apr-09 19:30N 43°25' E 004°50'0 0.0
2017-Apr-09 17:27N 43°25' E 004°50'0 0.3
2017-Apr-09 16:55N 43°25' E 004°50'1 1.3
2017-Apr-09 16:29N 43°25' E 004°51'510.4
2017-Apr-09 16:00N 43°23' E 004°57'4 8.3
2017-Apr-09 15:30N 43°19' E 004°59'4 8.5
2017-Apr-09 15:00N 43°15' E 005°01'1212.3
2017-Apr-09 14:00N 43°06' E 005°13'816.1
2017-Apr-09 13:30N 43°01' E 005°21'1615.8
2017-Apr-09 12:29N 42°50' E 005°38'915.4
2017-Apr-09 11:55N 42°47' E 005°49'716.6
2017-Apr-09 11:31N 42°47' E 005°58'816.5
2017-Apr-09 11:00N 42°47' E 006°09'816.5
2017-Apr-09 10:31N 42°47' E 006°21'816.7
2017-Apr-09 10:00N 42°48' E 006°32'917.0
2017-Apr-09 09:30N 42°51' E 006°43'816.9
2017-Apr-09 09:00N 42°55' E 006°53'816.4
2017-Apr-09 08:29N 42°59' E 007°03'816.1
2017-Apr-09 08:01N 43°02' E 007°13'816.3
2017-Apr-09 07:30N 43°06' E 007°23'816.3
2017-Apr-09 07:00N 43°10' E 007°33'816.2
2017-Apr-09 06:30N 43°13' E 007°43'816.3
2017-Apr-09 06:01N 43°17' E 007°53'816.3
2017-Apr-09 05:31N 43°20' E 008°03'816.3
2017-Apr-09 04:59N 43°24' E 008°13'816.4
2017-Apr-09 04:31N 43°27' E 008°23'816.4
2017-Apr-09 04:01N 43°31' E 008°33'816.6
2017-Apr-09 03:31N 43°35' E 008°43'816.4
2017-Apr-09 03:01N 43°39' E 008°53'816.3
2017-Apr-09 02:30N 43°43' E 009°03'816.3
2017-Apr-09 02:00N 43°46' E 009°13'816.3
2017-Apr-09 01:30N 43°49' E 009°24'816.3
2017-Apr-09 01:00N 43°53' E 009°34'816.2
2017-Apr-09 00:31N 43°56' E 009°44'815.9
2017-Apr-09 00:01N 44°01' E 009°53'510.2
2017-Apr-08 23:30N 44°06' E 009°51'1 1.1
2017-Apr-08 23:00N 44°06' E 009°51'0 0.0
2017-Apr-08 22:31N 44°06' E 009°51'0 0.0
2017-Apr-08 22:00N 44°06' E 009°51'0 0.0
2017-Apr-08 21:31N 44°06' E 009°51'0 0.0
2017-Apr-08 21:01N 44°06' E 009°51'0 0.0
2017-Apr-08 20:30N 44°06' E 009°51'0 0.0
2017-Apr-08 20:01N 44°06' E 009°51'0 0.0
2017-Apr-08 19:31N 44°06' E 009°51'0 0.0
2017-Apr-08 19:01N 44°06' E 009°51'  
Track history (hours):
 
Tides and Currents Weather Stations Pressure Air Temp Water Temp Dewpoint Dewpoint Depression Visibility Wind Speed Wind Dir Waves Ship Positions

MSC Clorinda

Last reported at 2017-Apr-18 18:57 UTC. Time now 2017-Apr-26 07:58 UTC.
Position N 31°27' E 032°20'.

Length 366 m; draft 15.4 m.

Type: Ship (hazmat cat A). MMSI: 373233000.

Date/timePositionNaut miles runAvg speedWind from/ knotsBaromVisibWave heightAir tempDewpointWater temp
2017-Apr-18 18:57N 31°27' E 032°20'2 3.6
2017-Apr-18 18:23N 31°27' E 032°18'3 7.7
2017-Apr-18 18:00N 31°29' E 032°16'611.7
2017-Apr-18 17:30N 31°33' E 032°11'612.3
2017-Apr-18 17:00N 31°37' E 032°06'612.3
2017-Apr-18 16:30N 31°42' E 032°01'714.2
2017-Apr-18 16:00N 31°46' E 031°54'9016.9
2017-Apr-18 10:43N 32°15' E 030°14'78918.6
2017-Apr-16 16:10N 35°39' E 014°55'417.7
2017-Apr-16 15:58N 35°40' E 014°50'818.3
2017-Apr-16 15:30N 35°41' E 014°40'1018.9
2017-Apr-16 14:59N 35°43' E 014°29'918.3
2017-Apr-16 14:30N 35°46' E 014°18'1818.4
2017-Apr-16 13:30N 35°56' E 013°59'918.5
2017-Apr-16 13:00N 36°01' E 013°49'918.4
2017-Apr-16 12:30N 36°06' E 013°40'918.7
2017-Apr-16 12:00N 36°11' E 013°30'919.0
2017-Apr-16 11:30N 36°16' E 013°20'1019.5
2017-Apr-16 11:00N 36°21' E 013°10'1219.3
2017-Apr-16 10:22N 36°28' E 012°57'819.3
2017-Apr-16 09:57N 36°32' E 012°49'919.4
2017-Apr-16 09:29N 36°37' E 012°39'919.2
2017-Apr-16 09:00N 36°42' E 012°29'918.9
2017-Apr-16 08:30N 36°47' E 012°20'14418.9
2017-Apr-16 00:54N 37°55' E 009°40'719.1
2017-Apr-16 00:30N 37°58' E 009°32'1018.9
2017-Apr-15 23:59N 38°02' E 009°20'918.8
2017-Apr-15 23:30N 38°06' E 009°10'2318.7
2017-Apr-15 22:16N 38°16' E 008°43'518.5
2017-Apr-15 22:00N 38°18' E 008°37'918.6
2017-Apr-15 21:30N 38°21' E 008°27'26418.3
2017-Apr-15 07:03N 40°38' E 003°33'118.4
2017-Apr-15 07:00N 40°39' E 003°32'918.6
2017-Apr-15 06:30N 40°44' E 003°22'918.7
2017-Apr-15 06:00N 40°49' E 003°11'918.4
2017-Apr-15 05:30N 40°53' E 003°01'918.3
2017-Apr-15 05:00N 40°58' E 002°51'918.2
2017-Apr-15 04:30N 41°03' E 002°40'918.1
2017-Apr-15 04:00N 41°08' E 002°30'918.1
2017-Apr-15 03:30N 41°12' E 002°20'815.6
2017-Apr-15 03:00N 41°16' E 002°11'4 7.1
2017-Apr-15 02:30N 41°19' E 002°10'1 1.1
2017-Apr-15 01:38N 41°18' E 002°09'0 0.0
2017-Apr-15 01:26N 41°18' E 002°09'0 0.0
2017-Apr-15 00:56N 41°18' E 002°09'0 0.0
2017-Apr-14 20:26N 41°18' E 002°09'0 0.0
2017-Apr-14 17:50N 41°18' E 002°09'0 0.0
2017-Apr-14 17:26N 41°18' E 002°09'0 0.0
2017-Apr-14 15:26N 41°18' E 002°09'0 0.0
2017-Apr-14 13:44N 41°18' E 002°09'0 0.0
2017-Apr-14 13:20N 41°18' E 002°09'0 0.0
2017-Apr-14 12:56N 41°18' E 002°09'0 0.0
2017-Apr-14 12:26N 41°18' E 002°09'0 0.0
2017-Apr-14 11:59N 41°18' E 002°09'0 0.0
2017-Apr-14 11:23N 41°18' E 002°09'0 0.0
2017-Apr-14 10:50N 41°18' E 002°09'0 0.0
2017-Apr-14 10:29N 41°18' E 002°09'0 0.0
2017-Apr-14 09:56N 41°18' E 002°09'0 0.0
2017-Apr-14 09:29N 41°18' E 002°09'0 0.0
2017-Apr-14 07:32N 41°18' E 002°09'0 0.1
2017-Apr-14 07:26N 41°18' E 002°09'0 0.0
2017-Apr-14 05:32N 41°18' E 002°09'0 0.0
2017-Apr-14 05:05N 41°18' E 002°09'0 0.0
2017-Apr-14 04:59N 41°18' E 002°09'0 0.0
2017-Apr-14 04:29N 41°18' E 002°09'0 0.0
2017-Apr-14 03:44N 41°18' E 002°09'0 0.0
2017-Apr-14 03:26N 41°18' E 002°09'0 0.0
2017-Apr-14 02:59N 41°18' E 002°09'3 0.6
2017-Apr-13 21:48N 41°16' E 002°11'3 8.8
2017-Apr-13 21:30N 41°13' E 002°09'5 9.7
2017-Apr-13 21:00N 41°09' E 002°05'816.4
2017-Apr-13 20:30N 41°03' E 001°59'917.2
2017-Apr-13 20:00N 40°56' E 001°53'917.2
2017-Apr-13 19:30N 40°49' E 001°46'917.3
2017-Apr-13 19:00N 40°41' E 001°40'917.4
2017-Apr-13 18:30N 40°35' E 001°33'917.8
2017-Apr-13 18:00N 40°27' E 001°27'1019.2
2017-Apr-13 17:30N 40°19' E 001°20'1019.2
2017-Apr-13 17:00N 40°11' E 001°13'1019.0
2017-Apr-13 16:29N 40°03' E 001°05'918.8
2017-Apr-13 16:00N 39°55' E 000°58'918.8
2017-Apr-13 15:30N 39°48' E 000°52'1018.7
2017-Apr-13 15:00N 39°43' E 000°41'919.0
2017-Apr-13 14:30N 39°40' E 000°30'3119.1
2017-Apr-13 12:52N 39°28' W 000°08'617.1
2017-Apr-13 12:30N 39°25' W 000°15'3 5.8
2017-Apr-13 12:00N 39°26' W 000°19'0 0.9
2017-Apr-13 11:29N 39°26' W 000°20'0 0.0
2017-Apr-13 10:59N 39°26' W 000°20'0 0.0
2017-Apr-13 10:29N 39°26' W 000°20'0 0.0
2017-Apr-13 09:59N 39°26' W 000°20'0 0.0
2017-Apr-13 09:29N 39°26' W 000°20'0 0.0
2017-Apr-13 08:59N 39°26' W 000°20'0 0.0
2017-Apr-13 08:29N 39°26' W 000°20'0 0.0
2017-Apr-13 07:59N 39°26' W 000°20'0 0.0
2017-Apr-13 07:29N 39°26' W 000°20'0 0.0
2017-Apr-13 06:59N 39°26' W 000°20'0 0.0
2017-Apr-13 06:29N 39°26' W 000°20'0 0.0
2017-Apr-13 05:56N 39°26' W 000°20'0 0.0
2017-Apr-13 05:26N 39°26' W 000°20'0 0.0
2017-Apr-13 04:56N 39°26' W 000°20'0 0.0
2017-Apr-13 04:29N 39°26' W 000°20'0 0.0
2017-Apr-13 03:59N 39°26' W 000°20'0 0.0
2017-Apr-13 03:29N 39°26' W 000°20'0 0.0
2017-Apr-13 02:59N 39°26' W 000°20'0 0.0
2017-Apr-13 02:29N 39°26' W 000°20'0 0.0
2017-Apr-13 01:59N 39°26' W 000°20'0 0.0
2017-Apr-13 01:29N 39°26' W 000°20'0 0.0
2017-Apr-13 00:59N 39°26' W 000°20'0 0.0
2017-Apr-13 00:29N 39°26' W 000°20'0 0.0
2017-Apr-12 23:56N 39°26' W 000°20'0 0.0
2017-Apr-12 23:29N 39°26' W 000°20'0 0.0
2017-Apr-12 22:56N 39°26' W 000°20'0 0.0
2017-Apr-12 22:26N 39°26' W 000°20'0 0.0
2017-Apr-12 21:56N 39°26' W 000°20'0 0.0
2017-Apr-12 21:26N 39°26' W 000°20'0 0.0
2017-Apr-12 20:56N 39°26' W 000°20'0 0.0
2017-Apr-12 20:26N 39°26' W 000°20'0 0.0
2017-Apr-12 19:56N 39°26' W 000°20'0 0.0
2017-Apr-12 19:17N 39°26' W 000°20'0 0.0
2017-Apr-12 18:56N 39°26' W 000°20'0 0.0
2017-Apr-12 18:26N 39°26' W 000°20'0 0.0
2017-Apr-12 17:56N 39°26' W 000°20'0 0.0
2017-Apr-12 17:23N 39°26' W 000°20'0 0.0
2017-Apr-12 16:56N 39°26' W 000°20'0 0.0
2017-Apr-12 16:26N 39°26' W 000°20'0 0.0
2017-Apr-12 15:59N 39°26' W 000°20'0 0.0
2017-Apr-12 15:29N 39°26' W 000°20'0 0.0
2017-Apr-12 14:59N 39°26' W 000°20'0 0.0
2017-Apr-12 14:26N 39°26' W 000°20'0 0.0
2017-Apr-12 13:26N 39°26' W 000°20'0 0.0
2017-Apr-12 12:56N 39°26' W 000°20'0 0.0
2017-Apr-12 12:26N 39°26' W 000°20'0 0.0
2017-Apr-12 11:59N 39°26' W 000°20'0 0.0
2017-Apr-12 09:23N 39°26' W 000°20'0 0.0
2017-Apr-12 07:26N 39°26' W 000°20'0 0.0
2017-Apr-12 06:56N 39°26' W 000°20'0 0.0
2017-Apr-12 06:26N 39°26' W 000°20'0 0.0
2017-Apr-12 05:59N 39°26' W 000°20'0 0.0
2017-Apr-12 05:26N 39°26' W 000°20'0 0.0
2017-Apr-12 04:56N 39°26' W 000°20'0 0.0
2017-Apr-12 04:29N 39°26' W 000°20'0 0.0
2017-Apr-12 03:59N 39°26' W 000°20'0 0.0
2017-Apr-12 03:26N 39°26' W 000°20'0 0.0
2017-Apr-12 02:59N 39°26' W 000°20'0 0.0
2017-Apr-12 02:29N 39°26' W 000°20'0 0.0
2017-Apr-12 01:56N 39°26' W 000°20'0 0.0
2017-Apr-12 01:26N 39°26' W 000°20'0 0.0
2017-Apr-12 00:56N 39°26' W 000°20'0 0.0
2017-Apr-12 00:29N 39°26' W 000°20'0 0.0
2017-Apr-11 23:02N 39°26' W 000°20'0 0.0
2017-Apr-11 22:59N 39°26' W 000°20'0 0.2
2017-Apr-11 22:30N 39°26' W 000°20'3 5.7
2017-Apr-11 22:00N 39°25' W 000°16'4 7.1
2017-Apr-11 21:30N 39°27' W 000°12'5 9.1
2017-Apr-11 21:00N 39°28' W 000°06'815.3
2017-Apr-11 20:30N 39°31' E 000°03'1115.0
2017-Apr-11 19:46N 39°36' E 000°16'414.4
2017-Apr-11 19:30N 39°37' E 000°20'714.1
2017-Apr-11 19:00N 39°40' E 000°29'714.0
2017-Apr-11 18:30N 39°42' E 000°37'714.2
2017-Apr-11 18:01N 39°45' E 000°46'714.3
2017-Apr-11 17:30N 39°49' E 000°54'714.7
2017-Apr-11 17:00N 39°54' E 001°01'815.2
2017-Apr-11 16:30N 39°60' E 001°07'815.3
2017-Apr-11 16:00N 40°05' E 001°14'815.6
2017-Apr-11 15:30N 40°11' E 001°21'815.5
2017-Apr-11 15:00N 40°16' E 001°28'815.6
2017-Apr-11 14:30N 40°22' E 001°36'1615.6
2017-Apr-11 13:31N 40°33' E 001°50'815.9
2017-Apr-11 13:00N 40°39' E 001°58'815.7
2017-Apr-11 12:30N 40°44' E 002°05'816.1
2017-Apr-11 12:00N 40°50' E 002°12'816.2
2017-Apr-11 11:31N 40°56' E 002°20'816.6
2017-Apr-11 11:00N 41°02' E 002°27'918.8
2017-Apr-11 10:30N 41°08' E 002°36'1019.9
2017-Apr-11 10:00N 41°15' E 002°46'1019.8
2017-Apr-11 09:30N 41°22' E 002°55'1019.6
2017-Apr-11 09:00N 41°29' E 003°04'1019.1
2017-Apr-11 08:30N 41°36' E 003°13'1019.5
2017-Apr-11 08:00N 41°43' E 003°22'9320.1
2017-Apr-11 03:24N 42°54' E 004°42'1619.4
2017-Apr-11 02:34N 43°07' E 004°56'119.3
2017-Apr-11 02:30N 43°08' E 004°57'917.7
2017-Apr-11 02:00N 43°16' E 004°60'713.7
2017-Apr-11 01:30N 43°23' E 004°57'6 0.7
2017-Apr-10 17:24N 43°25' E 004°50'0 0.0
2017-Apr-10 15:30N 43°25' E 004°50'0 0.0
2017-Apr-10 14:12N 43°25' E 004°50'0 0.0
2017-Apr-10 13:24N 43°25' E 004°50'0 0.0
2017-Apr-10 03:24N 43°25' E 004°50'0 0.0
2017-Apr-09 22:06N 43°25' E 004°50'0 0.0
2017-Apr-09 21:36N 43°25' E 004°50'0 0.1
2017-Apr-09 21:30N 43°25' E 004°50'0 0.0
2017-Apr-09 19:30N 43°25' E 004°50'0 0.0
2017-Apr-09 17:27N 43°25' E 004°50'0 0.3
2017-Apr-09 16:55N 43°25' E 004°50'1 1.3
2017-Apr-09 16:29N 43°25' E 004°51'510.4
2017-Apr-09 16:00N 43°23' E 004°57'4 8.3
2017-Apr-09 15:30N 43°19' E 004°59'4 8.5
2017-Apr-09 15:00N 43°15' E 005°01'1212.3
2017-Apr-09 14:00N 43°06' E 005°13'816.1
2017-Apr-09 13:30N 43°01' E 005°21'1615.8
2017-Apr-09 12:29N 42°50' E 005°38'915.4
2017-Apr-09 11:55N 42°47' E 005°49'716.6
2017-Apr-09 11:31N 42°47' E 005°58'816.5
2017-Apr-09 11:00N 42°47' E 006°09'816.5
2017-Apr-09 10:31N 42°47' E 006°21'816.7
2017-Apr-09 10:00N 42°48' E 006°32'917.0
2017-Apr-09 09:30N 42°51' E 006°43'816.9
2017-Apr-09 09:00N 42°55' E 006°53'816.4
2017-Apr-09 08:29N 42°59' E 007°03'816.1
2017-Apr-09 08:01N 43°02' E 007°13'816.3
2017-Apr-09 07:30N 43°06' E 007°23'816.3
2017-Apr-09 07:00N 43°10' E 007°33'816.2
2017-Apr-09 06:30N 43°13' E 007°43'816.3
2017-Apr-09 06:01N 43°17' E 007°53'816.3
2017-Apr-09 05:31N 43°20' E 008°03'816.3
2017-Apr-09 04:59N 43°24' E 008°13'816.4
2017-Apr-09 04:31N 43°27' E 008°23'816.4
2017-Apr-09 04:01N 43°31' E 008°33'816.6
2017-Apr-09 03:31N 43°35' E 008°43'816.4
2017-Apr-09 03:01N 43°39' E 008°53'816.3
2017-Apr-09 02:30N 43°43' E 009°03'816.3
2017-Apr-09 02:00N 43°46' E 009°13'816.3
2017-Apr-09 01:30N 43°49' E 009°24'816.3
2017-Apr-09 01:00N 43°53' E 009°34'816.2
2017-Apr-09 00:31N 43°56' E 009°44'815.9
2017-Apr-09 00:01N 44°01' E 009°53'510.2
2017-Apr-08 23:30N 44°06' E 009°51'1 1.1
2017-Apr-08 23:00N 44°06' E 009°51'0 0.0
2017-Apr-08 22:31N 44°06' E 009°51'0 0.0
2017-Apr-08 22:00N 44°06' E 009°51'0 0.0
2017-Apr-08 21:31N 44°06' E 009°51'0 0.0
2017-Apr-08 21:01N 44°06' E 009°51'0 0.0
2017-Apr-08 20:30N 44°06' E 009°51'0 0.0
2017-Apr-08 20:01N 44°06' E 009°51'0 0.0
2017-Apr-08 19:31N 44°06' E 009°51'0 0.0
2017-Apr-08 19:01N 44°06' E 009°51'  

Dump ship's entire track history